OOCL Europe — VRBX7 — position and weather

sailwx.info

Track history (hours):
 
Tides and Currents Weather Stations Pressure Air Temp Water Temp Dewpoint Dewpoint Depression Visibility Wind Speed Wind Dir Waves Ship Positions

OOCL Europe

Last reported at 2018-Jul-21 12:00 UTC. Time now 2018-Jul-22 06:29 UTC.
Position N 43°00' W 052°00'.

Length 323 m; draft 11.8 m.

Type: Cargo ship. MMSI: 477214700.

Wind from 200 at 12 knots

Barometer 1031.7 mb
Air temperature 21.0 ° C
Visibility: greater than 10.8 NM
Dewpoint 16.0 ° C
Water temperature 14.0 ° C

Date/timePositionNaut miles runAvg speedWind from/ knotsBaromVisibWave heightAir tempDewpointWater temp
2018-Jul-21 12:00N 43°00' W 052°00'   200 / 121031.710.8 21.016.014.0
2018-Jul-18 00:00N 33°54' W 075°42'21711.9 280 / 141014.510.8 28.526.420.0
2018-Jul-17 05:46N 32°42' W 079°47'414.4
2018-Jul-17 05:30N 32°44' W 079°51'510.3
2018-Jul-17 05:00N 32°48' W 079°55'2 4.0
2018-Jul-17 04:30N 32°50' W 079°54'0 0.2
2018-Jul-17 03:54N 32°50' W 079°53'0 0.0
2018-Jul-17 03:03N 32°50' W 079°53'0 0.0
2018-Jul-17 02:45N 32°50' W 079°53'0 0.1
2018-Jul-17 02:30N 32°50' W 079°53'0 0.0
2018-Jul-17 02:00N 32°50' W 079°53'0 0.0
2018-Jul-17 01:24N 32°50' W 079°53'0 0.0
2018-Jul-17 00:21N 32°50' W 079°53'0 0.0
2018-Jul-16 23:27N 32°50' W 079°53'0 0.0
2018-Jul-16 23:00N 32°50' W 079°53'0 0.0
2018-Jul-16 22:30N 32°50' W 079°53'0 0.0
2018-Jul-16 22:00N 32°50' W 079°53'0 0.0
2018-Jul-16 21:30N 32°50' W 079°53'0 0.0
2018-Jul-16 20:54N 32°50' W 079°53'0 0.0
2018-Jul-16 20:30N 32°50' W 079°53'0 0.0
2018-Jul-16 20:00N 32°50' W 079°53'0 0.0
2018-Jul-16 19:27N 32°50' W 079°53'0 0.0
2018-Jul-16 19:00N 32°50' W 079°53'0 0.0
2018-Jul-16 18:30N 32°50' W 079°53'0 0.0
2018-Jul-16 17:33N 32°50' W 079°53'0 0.1
2018-Jul-16 17:24N 32°50' W 079°53'0 0.0
2018-Jul-16 16:54N 32°50' W 079°53'0 0.0
2018-Jul-16 16:30N 32°50' W 079°53'0 0.0
2018-Jul-16 16:00N 32°50' W 079°53'0 0.0
2018-Jul-16 15:30N 32°50' W 079°53'0 0.0
2018-Jul-16 14:57N 32°50' W 079°53'0 0.0
2018-Jul-16 14:18N 32°50' W 079°53'0 0.1
2018-Jul-16 14:00N 32°50' W 079°53'0 0.0
2018-Jul-16 13:27N 32°50' W 079°53'0 0.0
2018-Jul-16 12:48N 32°50' W 079°53'0 0.0
2018-Jul-16 12:15N 32°50' W 079°53'0 0.0
2018-Jul-16 10:54N 32°50' W 079°53'0 0.0
2018-Jul-16 10:24N 32°50' W 079°53'0 0.0
2018-Jul-16 10:00N 32°50' W 079°53'1 1.2
2018-Jul-16 09:30N 32°50' W 079°54'3 6.4
2018-Jul-16 09:00N 32°46' W 079°53'713.1
2018-Jul-16 08:31N 32°43' W 079°47'914.7
2018-Jul-16 07:55N 32°38' W 079°38'13 9.3
2018-Jul-16 06:28N 32°26' W 079°31'0 1.1
2018-Jul-16 06:00N 32°26' W 079°31'0 0.5
2018-Jul-16 05:30N 32°26' W 079°31'0 0.5
2018-Jul-16 04:59N 32°26' W 079°31'0 0.6
2018-Jul-16 04:27N 32°26' W 079°32'0 0.5
2018-Jul-16 03:57N 32°26' W 079°32'0 0.3
2018-Jul-16 03:31N 32°26' W 079°32'0 0.3
2018-Jul-16 02:56N 32°26' W 079°32'0 0.4
2018-Jul-16 02:29N 32°26' W 079°33'0 0.5
2018-Jul-16 02:00N 32°25' W 079°33'0 0.8
2018-Jul-16 01:26N 32°25' W 079°33'1 1.7
2018-Jul-16 01:01N 32°25' W 079°34'53 3.6
2018-Jul-15 10:18N 31°57' W 080°27'2 7.2
2018-Jul-15 09:58N 31°57' W 080°30'4 7.4
2018-Jul-15 09:28N 31°57' W 080°34'4 7.5
2018-Jul-15 09:00N 31°57' W 080°38'4 7.3
2018-Jul-15 08:30N 31°57' W 080°43'510.6
2018-Jul-15 08:00N 32°00' W 080°48'612.7
2018-Jul-15 07:30N 32°02' W 080°55'612.3
2018-Jul-15 07:00N 32°06' W 081°00'4 8.3
2018-Jul-15 06:29N 32°05' W 081°05'3 6.2
2018-Jul-15 06:00N 32°07' W 081°08'1 0.9
2018-Jul-15 05:21N 32°08' W 081°08'0 0.0
2018-Jul-15 04:57N 32°08' W 081°08'0 0.0
2018-Jul-15 04:27N 32°08' W 081°08'0 0.0
2018-Jul-15 03:39N 32°08' W 081°08'0 0.0
2018-Jul-15 03:27N 32°08' W 081°08'0 0.0
2018-Jul-15 02:57N 32°08' W 081°08'0 0.0
2018-Jul-15 02:21N 32°08' W 081°08'0 0.0
2018-Jul-15 01:57N 32°08' W 081°08'0 0.0
2018-Jul-15 01:27N 32°08' W 081°08'0 0.0
2018-Jul-15 00:57N 32°08' W 081°08'0 0.0
2018-Jul-15 00:27N 32°08' W 081°08'0 0.0
2018-Jul-14 23:57N 32°08' W 081°08'0 0.0
2018-Jul-14 23:27N 32°08' W 081°08'0 0.0
2018-Jul-14 22:57N 32°08' W 081°08'0 0.0
2018-Jul-14 22:21N 32°08' W 081°08'0 0.0
2018-Jul-14 21:57N 32°08' W 081°08'0 0.0
2018-Jul-14 21:27N 32°08' W 081°08'0 0.0
2018-Jul-14 20:57N 32°08' W 081°08'0 0.0
2018-Jul-14 20:27N 32°08' W 081°08'0 0.0
2018-Jul-14 19:51N 32°08' W 081°08'0 0.1
2018-Jul-14 19:27N 32°08' W 081°08'0 0.0
2018-Jul-14 18:57N 32°08' W 081°08'0 0.0
2018-Jul-14 18:27N 32°08' W 081°08'0 0.0
2018-Jul-14 17:57N 32°08' W 081°08'0 0.0
2018-Jul-14 17:27N 32°08' W 081°08'0 0.0
2018-Jul-14 16:57N 32°08' W 081°08'0 0.0
2018-Jul-14 16:27N 32°08' W 081°08'0 0.0
2018-Jul-14 15:57N 32°08' W 081°08'0 0.0
2018-Jul-14 15:27N 32°08' W 081°08'0 0.0
2018-Jul-14 14:57N 32°08' W 081°08'0 0.0
2018-Jul-14 13:57N 32°08' W 081°08'0 0.0
2018-Jul-14 13:27N 32°08' W 081°08'0 0.0
2018-Jul-14 12:57N 32°08' W 081°08'0 0.0
2018-Jul-14 12:27N 32°08' W 081°08'0 0.0
2018-Jul-14 11:57N 32°08' W 081°08'0 0.0
2018-Jul-14 11:27N 32°08' W 081°08'0 0.0
2018-Jul-14 11:00N 32°08' W 081°08'0 0.9
2018-Jul-14 10:30N 32°08' W 081°08'2 5.0
2018-Jul-14 10:00N 32°06' W 081°07'3 6.0
2018-Jul-14 09:28N 32°05' W 081°03'3 7.0
2018-Jul-14 09:00N 32°05' W 080°59'4 7.4
2018-Jul-14 08:30N 32°03' W 080°56'4 7.6
2018-Jul-14 08:00N 32°02' W 080°52'510.1
2018-Jul-14 07:30N 31°59' W 080°47'712.7
2018-Jul-14 07:00N 31°57' W 080°39'4 7.4
2018-Jul-14 06:29N 31°57' W 080°35'713.6
2018-Jul-14 05:59N 31°57' W 080°27'27615.4
2018-Jul-13 12:00N 34°33' W 075°54'13913.7
2018-Jul-13 01:50N 36°52' W 075°53'616.0
2018-Jul-13 01:27N 36°56' W 075°59'410.1
2018-Jul-13 01:00N 36°58' W 076°04'814.7
2018-Jul-13 00:28N 37°00' W 076°13'612.5
2018-Jul-13 00:00N 36°58' W 076°20'4 6.7
2018-Jul-12 23:28N 36°55' W 076°20'0 0.1
2018-Jul-12 22:48N 36°55' W 076°20'0 0.0
2018-Jul-12 22:23N 36°55' W 076°20'0 0.0
2018-Jul-12 21:56N 36°55' W 076°20'0 0.0
2018-Jul-12 21:27N 36°55' W 076°20'0 0.0
2018-Jul-12 21:00N 36°55' W 076°20'0 0.0
2018-Jul-12 20:26N 36°55' W 076°20'0 0.0
2018-Jul-12 19:59N 36°55' W 076°20'0 0.0
2018-Jul-12 19:29N 36°55' W 076°20'0 0.0
2018-Jul-12 18:56N 36°55' W 076°20'0 0.0
2018-Jul-12 17:53N 36°55' W 076°20'0 0.0
2018-Jul-12 15:51N 36°55' W 076°20'0 0.0
2018-Jul-12 15:27N 36°55' W 076°20'0 0.0
2018-Jul-12 15:00N 36°55' W 076°20'0 0.0
2018-Jul-12 14:05N 36°55' W 076°20'0 0.0
2018-Jul-12 13:56N 36°55' W 076°20'0 0.0
2018-Jul-12 13:26N 36°55' W 076°20'0 0.0
2018-Jul-12 13:00N 36°55' W 076°20'0 0.0
2018-Jul-12 12:29N 36°55' W 076°20'0 0.0
2018-Jul-12 12:00N 36°55' W 076°20'0 0.0
2018-Jul-12 11:29N 36°55' W 076°20'0 0.0
2018-Jul-12 11:00N 36°55' W 076°20'0 0.0
2018-Jul-12 10:30N 36°55' W 076°20'0 0.0
2018-Jul-12 09:59N 36°55' W 076°20'0 0.0
2018-Jul-12 09:29N 36°55' W 076°20'0 0.0
2018-Jul-12 08:45N 36°55' W 076°20'0 0.0
2018-Jul-12 08:26N 36°55' W 076°20'0 0.0
2018-Jul-12 07:59N 36°55' W 076°20'0 0.0
2018-Jul-12 07:29N 36°55' W 076°20'0 0.0
2018-Jul-12 06:33N 36°55' W 076°20'0 0.0
2018-Jul-12 06:30N 36°55' W 076°20'0 0.0
2018-Jul-12 05:56N 36°55' W 076°20'0 0.0
2018-Jul-12 05:26N 36°55' W 076°20'0 0.0
2018-Jul-12 05:00N 36°55' W 076°20'0 0.0
2018-Jul-12 04:29N 36°55' W 076°20'0 0.0
2018-Jul-12 03:56N 36°55' W 076°20'0 0.0
2018-Jul-12 03:30N 36°55' W 076°20'0 0.0
2018-Jul-12 02:30N 36°55' W 076°20'0 0.0
2018-Jul-12 01:54N 36°55' W 076°20'0 0.0
2018-Jul-12 01:26N 36°55' W 076°20'0 0.0
2018-Jul-12 00:44N 36°55' W 076°20'0 0.0
2018-Jul-12 00:26N 36°55' W 076°20'0 0.0
2018-Jul-11 23:59N 36°55' W 076°20'0 0.0
2018-Jul-11 23:26N 36°55' W 076°20'0 0.0
2018-Jul-11 21:33N 36°55' W 076°20'0 0.1
2018-Jul-11 21:20N 36°55' W 076°20'1 1.8
2018-Jul-11 21:00N 36°55' W 076°20'3 6.2
2018-Jul-11 20:30N 36°58' W 076°20'712.5
2018-Jul-11 19:58N 36°60' W 076°12'9513.4
2018-Jul-11 12:51N 37°51' W 074°31'618.0
2018-Jul-11 12:30N 37°57' W 074°28'  
Track history (hours):
 
Tides and Currents Weather Stations Pressure Air Temp Water Temp Dewpoint Dewpoint Depression Visibility Wind Speed Wind Dir Waves Ship Positions

OOCL Europe

Last reported at 2018-Jul-21 12:00 UTC. Time now 2018-Jul-22 06:29 UTC.
Position N 43°00' W 052°00'.

Length 323 m; draft 11.8 m.

Type: Cargo ship. MMSI: 477214700.

Wind from 200 at 12 knots

Barometer 1031.7 mb
Air temperature 21.0 ° C
Visibility: greater than 10.8 NM
Dewpoint 16.0 ° C
Water temperature 14.0 ° C

Date/timePositionNaut miles runAvg speedWind from/ knotsBaromVisibWave heightAir tempDewpointWater temp
2018-Jul-21 12:00N 43°00' W 052°00'   200 / 121031.710.8 21.016.014.0
2018-Jul-18 00:00N 33°54' W 075°42'21711.9 280 / 141014.510.8 28.526.420.0
2018-Jul-17 05:46N 32°42' W 079°47'414.4
2018-Jul-17 05:30N 32°44' W 079°51'510.3
2018-Jul-17 05:00N 32°48' W 079°55'2 4.0
2018-Jul-17 04:30N 32°50' W 079°54'0 0.2
2018-Jul-17 03:54N 32°50' W 079°53'0 0.0
2018-Jul-17 03:03N 32°50' W 079°53'0 0.0
2018-Jul-17 02:45N 32°50' W 079°53'0 0.1
2018-Jul-17 02:30N 32°50' W 079°53'0 0.0
2018-Jul-17 02:00N 32°50' W 079°53'0 0.0
2018-Jul-17 01:24N 32°50' W 079°53'0 0.0
2018-Jul-17 00:21N 32°50' W 079°53'0 0.0
2018-Jul-16 23:27N 32°50' W 079°53'0 0.0
2018-Jul-16 23:00N 32°50' W 079°53'0 0.0
2018-Jul-16 22:30N 32°50' W 079°53'0 0.0
2018-Jul-16 22:00N 32°50' W 079°53'0 0.0
2018-Jul-16 21:30N 32°50' W 079°53'0 0.0
2018-Jul-16 20:54N 32°50' W 079°53'0 0.0
2018-Jul-16 20:30N 32°50' W 079°53'0 0.0
2018-Jul-16 20:00N 32°50' W 079°53'0 0.0
2018-Jul-16 19:27N 32°50' W 079°53'0 0.0
2018-Jul-16 19:00N 32°50' W 079°53'0 0.0
2018-Jul-16 18:30N 32°50' W 079°53'0 0.0
2018-Jul-16 17:33N 32°50' W 079°53'0 0.1
2018-Jul-16 17:24N 32°50' W 079°53'0 0.0
2018-Jul-16 16:54N 32°50' W 079°53'0 0.0
2018-Jul-16 16:30N 32°50' W 079°53'0 0.0
2018-Jul-16 16:00N 32°50' W 079°53'0 0.0
2018-Jul-16 15:30N 32°50' W 079°53'0 0.0
2018-Jul-16 14:57N 32°50' W 079°53'0 0.0
2018-Jul-16 14:18N 32°50' W 079°53'0 0.1
2018-Jul-16 14:00N 32°50' W 079°53'0 0.0
2018-Jul-16 13:27N 32°50' W 079°53'0 0.0
2018-Jul-16 12:48N 32°50' W 079°53'0 0.0
2018-Jul-16 12:15N 32°50' W 079°53'0 0.0
2018-Jul-16 10:54N 32°50' W 079°53'0 0.0
2018-Jul-16 10:24N 32°50' W 079°53'0 0.0
2018-Jul-16 10:00N 32°50' W 079°53'1 1.2
2018-Jul-16 09:30N 32°50' W 079°54'3 6.4
2018-Jul-16 09:00N 32°46' W 079°53'713.1
2018-Jul-16 08:31N 32°43' W 079°47'914.7
2018-Jul-16 07:55N 32°38' W 079°38'13 9.3
2018-Jul-16 06:28N 32°26' W 079°31'0 1.1
2018-Jul-16 06:00N 32°26' W 079°31'0 0.5
2018-Jul-16 05:30N 32°26' W 079°31'0 0.5
2018-Jul-16 04:59N 32°26' W 079°31'0 0.6
2018-Jul-16 04:27N 32°26' W 079°32'0 0.5
2018-Jul-16 03:57N 32°26' W 079°32'0 0.3
2018-Jul-16 03:31N 32°26' W 079°32'0 0.3
2018-Jul-16 02:56N 32°26' W 079°32'0 0.4
2018-Jul-16 02:29N 32°26' W 079°33'0 0.5
2018-Jul-16 02:00N 32°25' W 079°33'0 0.8
2018-Jul-16 01:26N 32°25' W 079°33'1 1.7
2018-Jul-16 01:01N 32°25' W 079°34'53 3.6
2018-Jul-15 10:18N 31°57' W 080°27'2 7.2
2018-Jul-15 09:58N 31°57' W 080°30'4 7.4
2018-Jul-15 09:28N 31°57' W 080°34'4 7.5
2018-Jul-15 09:00N 31°57' W 080°38'4 7.3
2018-Jul-15 08:30N 31°57' W 080°43'510.6
2018-Jul-15 08:00N 32°00' W 080°48'612.7
2018-Jul-15 07:30N 32°02' W 080°55'612.3
2018-Jul-15 07:00N 32°06' W 081°00'4 8.3
2018-Jul-15 06:29N 32°05' W 081°05'3 6.2
2018-Jul-15 06:00N 32°07' W 081°08'1 0.9
2018-Jul-15 05:21N 32°08' W 081°08'0 0.0
2018-Jul-15 04:57N 32°08' W 081°08'0 0.0
2018-Jul-15 04:27N 32°08' W 081°08'0 0.0
2018-Jul-15 03:39N 32°08' W 081°08'0 0.0
2018-Jul-15 03:27N 32°08' W 081°08'0 0.0
2018-Jul-15 02:57N 32°08' W 081°08'0 0.0
2018-Jul-15 02:21N 32°08' W 081°08'0 0.0
2018-Jul-15 01:57N 32°08' W 081°08'0 0.0
2018-Jul-15 01:27N 32°08' W 081°08'0 0.0
2018-Jul-15 00:57N 32°08' W 081°08'0 0.0
2018-Jul-15 00:27N 32°08' W 081°08'0 0.0
2018-Jul-14 23:57N 32°08' W 081°08'0 0.0
2018-Jul-14 23:27N 32°08' W 081°08'0 0.0
2018-Jul-14 22:57N 32°08' W 081°08'0 0.0
2018-Jul-14 22:21N 32°08' W 081°08'0 0.0
2018-Jul-14 21:57N 32°08' W 081°08'0 0.0
2018-Jul-14 21:27N 32°08' W 081°08'0 0.0
2018-Jul-14 20:57N 32°08' W 081°08'0 0.0
2018-Jul-14 20:27N 32°08' W 081°08'0 0.0
2018-Jul-14 19:51N 32°08' W 081°08'0 0.1
2018-Jul-14 19:27N 32°08' W 081°08'0 0.0
2018-Jul-14 18:57N 32°08' W 081°08'0 0.0
2018-Jul-14 18:27N 32°08' W 081°08'0 0.0
2018-Jul-14 17:57N 32°08' W 081°08'0 0.0
2018-Jul-14 17:27N 32°08' W 081°08'0 0.0
2018-Jul-14 16:57N 32°08' W 081°08'0 0.0
2018-Jul-14 16:27N 32°08' W 081°08'0 0.0
2018-Jul-14 15:57N 32°08' W 081°08'0 0.0
2018-Jul-14 15:27N 32°08' W 081°08'0 0.0
2018-Jul-14 14:57N 32°08' W 081°08'0 0.0
2018-Jul-14 13:57N 32°08' W 081°08'0 0.0
2018-Jul-14 13:27N 32°08' W 081°08'0 0.0
2018-Jul-14 12:57N 32°08' W 081°08'0 0.0
2018-Jul-14 12:27N 32°08' W 081°08'0 0.0
2018-Jul-14 11:57N 32°08' W 081°08'0 0.0
2018-Jul-14 11:27N 32°08' W 081°08'0 0.0
2018-Jul-14 11:00N 32°08' W 081°08'0 0.9
2018-Jul-14 10:30N 32°08' W 081°08'2 5.0
2018-Jul-14 10:00N 32°06' W 081°07'3 6.0
2018-Jul-14 09:28N 32°05' W 081°03'3 7.0
2018-Jul-14 09:00N 32°05' W 080°59'4 7.4
2018-Jul-14 08:30N 32°03' W 080°56'4 7.6
2018-Jul-14 08:00N 32°02' W 080°52'510.1
2018-Jul-14 07:30N 31°59' W 080°47'712.7
2018-Jul-14 07:00N 31°57' W 080°39'4 7.4
2018-Jul-14 06:29N 31°57' W 080°35'713.6
2018-Jul-14 05:59N 31°57' W 080°27'27615.4
2018-Jul-13 12:00N 34°33' W 075°54'13913.7
2018-Jul-13 01:50N 36°52' W 075°53'616.0
2018-Jul-13 01:27N 36°56' W 075°59'410.1
2018-Jul-13 01:00N 36°58' W 076°04'814.7
2018-Jul-13 00:28N 37°00' W 076°13'612.5
2018-Jul-13 00:00N 36°58' W 076°20'4 6.7
2018-Jul-12 23:28N 36°55' W 076°20'0 0.1
2018-Jul-12 22:48N 36°55' W 076°20'0 0.0
2018-Jul-12 22:23N 36°55' W 076°20'0 0.0
2018-Jul-12 21:56N 36°55' W 076°20'0 0.0
2018-Jul-12 21:27N 36°55' W 076°20'0 0.0
2018-Jul-12 21:00N 36°55' W 076°20'0 0.0
2018-Jul-12 20:26N 36°55' W 076°20'0 0.0
2018-Jul-12 19:59N 36°55' W 076°20'0 0.0
2018-Jul-12 19:29N 36°55' W 076°20'0 0.0
2018-Jul-12 18:56N 36°55' W 076°20'0 0.0
2018-Jul-12 17:53N 36°55' W 076°20'0 0.0
2018-Jul-12 15:51N 36°55' W 076°20'0 0.0
2018-Jul-12 15:27N 36°55' W 076°20'0 0.0
2018-Jul-12 15:00N 36°55' W 076°20'0 0.0
2018-Jul-12 14:05N 36°55' W 076°20'0 0.0
2018-Jul-12 13:56N 36°55' W 076°20'0 0.0
2018-Jul-12 13:26N 36°55' W 076°20'0 0.0
2018-Jul-12 13:00N 36°55' W 076°20'0 0.0
2018-Jul-12 12:29N 36°55' W 076°20'0 0.0
2018-Jul-12 12:00N 36°55' W 076°20'0 0.0
2018-Jul-12 11:29N 36°55' W 076°20'0 0.0
2018-Jul-12 11:00N 36°55' W 076°20'0 0.0
2018-Jul-12 10:30N 36°55' W 076°20'0 0.0
2018-Jul-12 09:59N 36°55' W 076°20'0 0.0
2018-Jul-12 09:29N 36°55' W 076°20'0 0.0
2018-Jul-12 08:45N 36°55' W 076°20'0 0.0
2018-Jul-12 08:26N 36°55' W 076°20'0 0.0
2018-Jul-12 07:59N 36°55' W 076°20'0 0.0
2018-Jul-12 07:29N 36°55' W 076°20'0 0.0
2018-Jul-12 06:33N 36°55' W 076°20'0 0.0
2018-Jul-12 06:30N 36°55' W 076°20'0 0.0
2018-Jul-12 05:56N 36°55' W 076°20'0 0.0
2018-Jul-12 05:26N 36°55' W 076°20'0 0.0
2018-Jul-12 05:00N 36°55' W 076°20'0 0.0
2018-Jul-12 04:29N 36°55' W 076°20'0 0.0
2018-Jul-12 03:56N 36°55' W 076°20'0 0.0
2018-Jul-12 03:30N 36°55' W 076°20'0 0.0
2018-Jul-12 02:30N 36°55' W 076°20'0 0.0
2018-Jul-12 01:54N 36°55' W 076°20'0 0.0
2018-Jul-12 01:26N 36°55' W 076°20'0 0.0
2018-Jul-12 00:44N 36°55' W 076°20'0 0.0
2018-Jul-12 00:26N 36°55' W 076°20'0 0.0
2018-Jul-11 23:59N 36°55' W 076°20'0 0.0
2018-Jul-11 23:26N 36°55' W 076°20'0 0.0
2018-Jul-11 21:33N 36°55' W 076°20'0 0.1
2018-Jul-11 21:20N 36°55' W 076°20'1 1.8
2018-Jul-11 21:00N 36°55' W 076°20'3 6.2
2018-Jul-11 20:30N 36°58' W 076°20'712.5
2018-Jul-11 19:58N 36°60' W 076°12'9513.4
2018-Jul-11 12:51N 37°51' W 074°31'618.0
2018-Jul-11 12:30N 37°57' W 074°28'  

Dump ship's entire track history